This is the latest recevied weather packets stored in our database for station/object KC3ELT-10. If no packets are shown the sender has not sent any weather packets the latest 10 day(s).
| Time | Temp. | Humidity | Pressure | Rain* | Wind** | Luminosity | Snow |
|---|---|---|---|---|---|---|---|
| 1777481578 | 15° C | 62% | 1007.4 hPa | 0 mm | 0.45 m/s, 185° | - | - |
| 1777481278 | 15° C | 62% | 1007.4 hPa | 0 mm | 0.89 m/s, 190° | - | - |
| 1777480978 | 15° C | 61% | 1007.6 hPa | 0 mm | 1.34 m/s, 116° | - | - |
| 1777480679 | 15° C | 62% | 1007.6 hPa | 0 mm | 2.24 m/s, 145° | - | - |
| 1777480378 | 14.44° C | 62% | 1007.6 hPa | 0 mm | 0.45 m/s, 181° | - | - |
| 1777480078 | 14.44° C | 62% | 1007.7 hPa | 0 mm | 0.45 m/s, 189° | - | - |
| 1777479779 | 14.44° C | 61% | 1007.7 hPa | 0 mm | 1.34 m/s, 150° | - | - |
| 1777479479 | 15° C | 63% | 1007.7 hPa | 0 mm | 2.68 m/s, 221° | - | - |
| 1777479178 | 14.44° C | 62% | 1007.9 hPa | 0 mm | 0.89 m/s, 97° | - | - |
| 1777478879 | 14.44° C | 64% | 1007.9 hPa | 0 mm | 1.79 m/s, 132° | - | - |
| 1777478578 | 13.89° C | 65% | 1007.9 hPa | 0 mm | 0.89 m/s, 120° | - | - |
| 1777478278 | 13.33° C | 64% | 1008.5 hPa | 0 mm | 0.45 m/s, 171° | - | - |
| 1777477978 | 13.33° C | 64% | 1008.5 hPa | 0 mm | 0.89 m/s, 150° | - | - |
| 1777477678 | 13.33° C | 65% | 1008.5 hPa | 0 mm | 1.34 m/s, 153° | - | - |
| 1777477378 | 13.33° C | 66% | 1008.6 hPa | 0 mm | 0.89 m/s, 124° | - | - |
| 1777477078 | 13.33° C | 64% | 1008.6 hPa | 0 mm | 0.89 m/s, 207° | - | - |
| 1777476779 | 13.33° C | 65% | 1008.6 hPa | 0 mm | 1.34 m/s, 163° | - | - |
| 1777476478 | 12.78° C | 64% | 1008.6 hPa | 0 mm | 1.34 m/s, 212° | - | - |
| 1777476178 | 12.78° C | 65% | 1008.6 hPa | 0 mm | 0 m/s | - | - |
| 1777475878 | 12.78° C | 64% | 1008.6 hPa | 0 mm | 0.89 m/s, 177° | - | - |
| 1777475579 | 12.78° C | 66% | 1008.9 hPa | 0 mm | 0.89 m/s, 186° | - | - |
| 1777475278 | 12.78° C | 66% | 1008.9 hPa | 0 mm | 0.89 m/s, 121° | - | - |
| 1777474978 | 12.22° C | 66% | 1008.9 hPa | 0 mm | 1.34 m/s, 100° | - | - |
| 1777474679 | 12.22° C | 65% | 1008.7 hPa | 0 mm | 1.34 m/s, 131° | - | - |
| 1777474378 | 12.22° C | 68% | 1008.7 hPa | 0 mm | 0.89 m/s, 165° | - | - |
* Rain latest hour (hover to see other rain measurements)
** Current wind speed in m/s (hover to see current wind gust speed)